Terminal Aerodrome Forecast
Issued by NWS

Home | Current Version | Previous Version | Text Only | Print | Product List | Glossary On
Versions: 1 2 3 4 5 6 7 8 9 10 11 12 13 14 15 16 17 18
000
FTUS43 KSGF 230520
TAFJLN
TAF
KJLN 230520Z 2306/2406 VRB05KT P6SM VCSH BKN080
     FM231200 30006KT P6SM VCSH BKN030
     FM231700 32011G19KT P6SM VCSH BKN040
     FM240000 31007KT P6SM BKN150=

USA.gov is the U.S. government's official web portal to all federal, state and local government web resources and services.